Terminal Aerodrome Forecast
Issued by NWS

Home | Current Version | Previous Version | Text Only | Print | Product List | Glossary On
Versions: 1 2 3 4 5 6 7 8 9 10 11 12 13 14 15 16 17 18 19 20 21 22 23 24
431
FTUS43 KILX 232124 AAA
TAFCMI
TAF AMD
KCMI 232124Z 2321/2418 09008KT P6SM VCSH BKN015 OVC150
     FM240100 10010KT P6SM VCSH OVC015
     FM240600 16011KT P6SM VCSH OVC015
     FM241100 18016KT P6SM BKN008
     FM241300 19016G24KT P6SM BKN010
     FM241600 20017G25KT P6SM BKN025=

USA.gov is the U.S. government's official web portal to all federal, state and local government web resources and services.